Connexion S'enregistrer

Connexion à votre compte

Identifiant
Mot de passe
Maintenir la connexion active sur ce site

Créer un compte

Pour valider ce formulaire, vous devez remplir tous les champs.
Nom
Identifiant
Mot de passe
Répétez le mot de passe
Adresse e-mail
Répétez l'adresse e-mail

Nous contacter

 Téléphone : +33 (0)4 79 54 41 81

Coordonnées détaillées et accès : cliquez ici

 
LFLB °C
    Ferienhaus Ostsee
[source: ADDS]
METAR
LFLB 232000Z AUTO 18003KT 160V220 CAVOK 09/04 Q1025 NOSIG =
TAF LFLB 231700Z 2318/2418 33005KT CAVOK BECMG 2318/2321 VRB03KT PROB40 TEMPO 2403/2408 3000 BR PROB30 TEMPO 2405/2408 0700 BCFG
TAF
TAF LFLB 231700Z 2318/2418 33005KT CAVOK BECMG 2318/2321 VRB03KT PROB40 TEMPO 2403/2408 3000 BR PROB30 TEMPO 2405/2408 0700 BCFG =
SR / SS: 05:34 / 17:52 UTC (Lever/Coucher du soleil le 2019-03-23)
JSN Boot template designed by JoomlaShine.com